Time;durP1;ratioP1;P1;durP2;ratioP2;P2;SDS_P1;SDS_P2;PMS_P1;PMS_P2;Temp;Humidity;BMP_temperature;BMP_pressure;BME280_temperature;BME280_humidity;BME280_pressure;Samples;Min_cycle;Max_cycle;Signal;HPM_P1;HPM_P2
2021/10/17 00:00:40;;;;;;;29.00;15.20;;;;;;;10.59;63.14;99413.23;27201;1216;3026499;-64
2021/10/17 00:03:09;;;;;;;33.10;16.00;;;;;;;10.55;63.19;99414.00;27219;1216;3028486;-65
2021/10/17 00:05:38;;;;;;;35.20;15.50;;;;;;;10.58;63.01;99409.79;27236;1216;3054140;-69
2021/10/17 00:08:08;;;;;;;35.10;16.60;;;;;;;10.57;63.03;99413.33;27240;1216;3028651;-65
2021/10/17 00:10:37;;;;;;;28.50;14.70;;;;;;;10.53;62.96;99413.08;27233;1216;3048570;-67
2021/10/17 00:13:08;;;;;;;36.30;15.70;;;;;;;10.50;63.19;99414.44;27215;1216;3026676;-70
2021/10/17 00:15:38;;;;;;;35.60;17.20;;;;;;;10.29;64.22;99413.23;27222;1216;3026079;-67
2021/10/17 00:18:08;;;;;;;36.80;17.70;;;;;;;10.15;64.86;99409.52;27201;1216;3026439;-67
2021/10/17 00:20:38;;;;;;;40.10;17.20;;;;;;;10.02;65.23;99411.36;27209;1216;3027330;-65
2021/10/17 00:23:07;;;;;;;43.00;17.40;;;;;;;9.90;65.94;99409.81;27234;1216;3027332;-65
2021/10/17 00:25:37;;;;;;;31.30;15.50;;;;;;;9.83;66.12;99409.98;27189;1216;3027098;-72
2021/10/17 00:28:06;;;;;;;41.20;19.00;;;;;;;9.78;66.23;99408.38;27233;1216;3027574;-70
2021/10/17 00:30:47;;;;;;;41.30;18.80;;;;;;;9.78;66.07;99406.66;27241;1216;3051841;-71
2021/10/17 00:33:16;;;;;;;37.80;15.80;;;;;;;9.74;66.60;99406.19;27221;1218;3026669;-70
2021/10/17 00:35:46;;;;;;;41.80;17.20;;;;;;;10.18;65.13;99400.79;27207;1216;3048719;-64
2021/10/17 00:38:16;;;;;;;40.90;18.90;;;;;;;10.48;63.97;99405.48;27284;1208;3026401;-66
2021/10/17 00:40:46;;;;;;;43.00;18.80;;;;;;;10.41;63.85;99404.17;27173;1216;3071305;-69
2021/10/17 00:43:15;;;;;;;43.30;17.30;;;;;;;10.27;63.97;99399.22;27241;1217;3027600;-71
2021/10/17 00:45:43;;;;;;;41.90;17.80;;;;;;;10.15;64.23;99401.11;27231;1216;3052786;-64
2021/10/17 00:48:12;;;;;;;42.00;17.80;;;;;;;10.13;64.35;99399.33;27191;1216;3026381;-65
2021/10/17 00:50:42;;;;;;;32.80;15.40;;;;;;;10.02;64.43;99400.36;27199;1217;3054873;-68
2021/10/17 00:53:10;;;;;;;28.50;14.40;;;;;;;10.00;64.31;99400.95;27203;1217;3025697;-71
2021/10/17 00:55:39;;;;;;;32.90;14.70;;;;;;;9.97;64.19;99397.11;27222;1216;3048676;-64
2021/10/17 00:58:09;;;;;;;29.90;14.40;;;;;;;9.97;64.04;99394.15;27236;1216;3026334;-67
2021/10/17 01:00:38;;;;;;;31.60;15.60;;;;;;;9.92;64.16;99397.08;27212;1217;3055526;-65
2021/10/17 01:03:07;;;;;;;32.90;15.00;;;;;;;9.80;65.02;99396.90;27216;1216;3027654;-68
2021/10/17 01:05:37;;;;;;;27.50;14.00;;;;;;;9.78;65.00;99396.29;27188;1216;3053745;-68
2021/10/17 01:08:06;;;;;;;28.00;14.20;;;;;;;9.76;64.81;99396.41;27201;1218;3028666;-71
2021/10/17 01:10:35;;;;;;;25.90;13.00;;;;;;;9.74;64.89;99392.70;27227;1216;3054705;-67
2021/10/17 01:13:05;;;;;;;26.70;13.70;;;;;;;9.73;64.90;99393.25;27214;1216;3026078;-66
2021/10/17 01:15:35;;;;;;;32.20;14.00;;;;;;;9.71;64.91;99394.95;27194;1216;3025987;-68
2021/10/17 01:18:04;;;;;;;23.30;12.30;;;;;;;9.69;64.57;99393.66;27214;1217;3025966;-68
2021/10/17 01:20:33;;;;;;;25.10;13.40;;;;;;;9.70;64.44;99395.70;27243;1217;3051173;-67
2021/10/17 01:23:03;;;;;;;26.50;13.20;;;;;;;9.71;64.35;99396.55;27243;1216;3027413;-65
2021/10/17 01:25:31;;;;;;;25.80;12.70;;;;;;;9.77;63.80;99395.14;27220;1218;3026133;-69
2021/10/17 01:28:01;;;;;;;24.80;12.50;;;;;;;9.78;63.97;99400.50;27228;1216;3053878;-66
2021/10/17 01:30:31;;;;;;;26.20;13.00;;;;;;;9.82;63.84;99398.88;27195;1216;3026177;-71
2021/10/17 01:33:01;;;;;;;24.70;12.40;;;;;;;9.87;63.66;99399.60;27183;1216;3026867;-70
2021/10/17 01:35:30;;;;;;;27.00;12.40;;;;;;;9.94;63.41;99396.45;27220;1216;3026178;-65
2021/10/17 01:37:59;;;;;;;26.90;13.00;;;;;;;9.95;63.36;99398.45;27238;1218;3055201;-65
2021/10/17 01:40:30;;;;;;;31.00;13.90;;;;;;;10.03;63.09;99400.07;27213;1216;3025988;-67
2021/10/17 01:42:59;;;;;;;25.90;13.60;;;;;;;10.06;62.88;99401.16;27267;1216;3026946;-64
2021/10/17 01:45:29;;;;;;;28.70;14.10;;;;;;;10.07;63.00;99401.40;27183;1217;3026124;-67
2021/10/17 01:47:59;;;;;;;26.50;13.30;;;;;;;10.11;62.74;99404.90;27166;1218;3026100;-69
2021/10/17 01:50:28;;;;;;;30.10;14.00;;;;;;;10.16;62.69;99409.30;27201;1218;3027145;-62
2021/10/17 01:52:57;;;;;;;26.80;13.50;;;;;;;10.19;62.71;99409.67;27207;1216;3050431;-69
2021/10/17 01:55:26;;;;;;;32.20;13.90;;;;;;;10.16;62.75;99412.98;27182;1217;3025972;-68
2021/10/17 01:57:55;;;;;;;34.90;14.70;;;;;;;10.08;62.96;99419.75;27208;1217;3053627;-68
2021/10/17 02:00:24;;;;;;;27.10;15.30;;;;;;;10.05;63.09;99425.55;27238;1216;3028110;-64
2021/10/17 02:02:55;;;;;;;33.20;14.70;;;;;;;10.07;62.91;99426.31;27229;1216;3048525;-67
2021/10/17 02:05:29;;;;;;;32.50;15.00;;;;;;;10.08;62.88;99426.58;27217;1218;3053346;-70
2021/10/17 02:07:59;;;;;;;31.30;15.20;;;;;;;10.10;62.89;99428.20;27210;1216;3029024;-71
2021/10/17 02:10:28;;;;;;;29.30;14.90;;;;;;;10.11;62.99;99431.60;27225;1217;3027919;-69
2021/10/17 02:13:02;;;;;;;26.90;14.30;;;;;;;10.13;63.02;99424.53;27211;1216;3052065;-66
2021/10/17 02:15:32;;;;;;;32.50;15.50;;;;;;;10.15;63.05;99424.61;27269;1215;3028335;-67
2021/10/17 02:18:04;;;;;;;29.80;15.20;;;;;;;10.17;62.68;99425.48;27259;1215;3025800;-67
2021/10/17 02:20:41;;;;;;;28.90;14.90;;;;;;;10.20;62.72;99423.58;27284;1215;3048020;-67
2021/10/17 02:23:10;;;;;;;33.90;16.10;;;;;;;10.20;62.75;99427.45;27258;1215;3026550;-68
2021/10/17 02:25:39;;;;;;;28.30;14.30;;;;;;;10.18;62.19;99423.84;27226;1215;3026303;-68
2021/10/17 02:28:08;;;;;;;27.70;13.70;;;;;;;10.16;62.15;99421.04;27282;1213;3048328;-69
2021/10/17 02:30:44;;;;;;;30.80;12.40;;;;;;;10.16;61.89;99414.92;27283;1215;3054463;-69
2021/10/17 02:33:28;;;;;;;27.80;12.10;;;;;;;10.12;61.50;99411.29;27262;1215;3051080;-71
2021/10/17 02:35:57;;;;;;;30.40;12.80;;;;;;;10.07;61.47;99409.66;27260;1214;3027030;-71
2021/10/17 02:38:26;;;;;;;23.70;12.80;;;;;;;10.09;61.45;99415.70;27300;1215;3054868;-69
2021/10/17 02:40:55;;;;;;;27.20;14.10;;;;;;;10.04;61.70;99415.22;27266;1214;3026271;-66
2021/10/17 02:43:24;;;;;;;27.60;14.70;;;;;;;9.95;61.80;99418.76;27284;1214;3050530;-67
2021/10/17 02:45:55;;;;;;;31.80;15.40;;;;;;;9.83;62.29;99418.76;27260;1215;3026576;-66
2021/10/17 02:48:24;;;;;;;33.20;15.10;;;;;;;9.69;62.85;99412.58;27235;1213;3028971;-69
2021/10/17 02:50:55;;;;;;;36.10;16.30;;;;;;;9.62;63.14;99412.96;27251;1215;3051738;-68
2021/10/17 02:53:25;;;;;;;40.10;16.00;;;;;;;9.62;62.95;99408.45;27269;1215;3026423;-66
2021/10/17 02:55:54;;;;;;;31.50;14.00;;;;;;;9.63;62.89;99408.73;27254;1215;3026365;-65
2021/10/17 02:58:23;;;;;;;28.80;14.70;;;;;;;9.64;62.77;99408.82;27272;1214;3048499;-70
2021/10/17 03:00:57;;;;;;;33.80;15.80;;;;;;;9.61;62.73;99407.06;27371;1215;3051611;-66
2021/10/17 03:03:27;;;;;;;35.20;17.60;;;;;;;9.66;62.47;99403.10;27308;1214;3026480;-73
2021/10/17 03:05:56;;;;;;;32.20;16.30;;;;;;;9.70;62.37;99404.45;27243;1215;3048557;-70
2021/10/17 03:08:28;;;;;;;32.20;14.80;;;;;;;9.67;62.12;99403.59;27305;1214;3025917;-72
2021/10/17 03:10:59;;;;;;;34.60;15.70;;;;;;;9.69;61.92;99405.20;27302;1215;3026353;-71
2021/10/17 03:13:28;;;;;;;30.20;15.00;;;;;;;9.62;62.24;99408.25;27252;1215;3026272;-70
2021/10/17 03:15:58;;;;;;;27.70;14.70;;;;;;;9.66;62.37;99401.54;27283;1215;3054591;-68
2021/10/17 03:18:27;;;;;;;26.70;14.40;;;;;;;9.59;62.40;99405.27;27247;1215;3025742;-66
2021/10/17 03:20:58;;;;;;;39.40;15.50;;;;;;;9.51;62.70;99406.42;27275;1215;3026172;-69
2021/10/17 03:23:28;;;;;;;41.90;16.80;;;;;;;9.43;62.96;99401.98;27290;1215;3026325;-67
2021/10/17 03:25:57;;;;;;;33.10;15.40;;;;;;;9.40;62.80;99405.67;27261;1215;3026374;-66
2021/10/17 03:28:26;;;;;;;37.90;17.00;;;;;;;9.44;62.17;99403.52;27251;1214;3055421;-67
2021/10/17 03:30:56;;;;;;;32.10;14.40;;;;;;;9.52;62.47;99397.95;27225;1214;3026642;-66
2021/10/17 03:33:25;;;;;;;31.10;13.90;;;;;;;9.52;62.00;99395.53;27286;1214;3029488;-65
2021/10/17 03:36:04;;;;;;;31.20;15.00;;;;;;;9.48;62.24;99394.69;27271;1215;3055199;-67
2021/10/17 03:38:36;;;;;;;31.80;14.70;;;;;;;9.44;62.35;99399.65;27239;1214;3048893;-66
2021/10/17 03:41:05;;;;;;;30.40;14.40;;;;;;;9.35;62.68;99400.69;27271;1215;3026458;-65
2021/10/17 03:43:42;;;;;;;26.40;14.30;;;;;;;9.36;62.38;99401.86;27266;1213;3058883;-67
2021/10/17 03:46:11;;;;;;;28.10;14.90;;;;;;;9.29;62.94;99399.82;27290;1214;3026109;-69
2021/10/17 03:48:40;;;;;;;31.40;13.00;;;;;;;9.21;62.72;99397.80;27277;1214;3054677;-70
2021/10/17 03:51:16;;;;;;;27.60;14.90;;;;;;;9.25;62.28;99402.49;27264;1215;3058137;-70
2021/10/17 03:53:45;;;;;;;29.90;13.70;;;;;;;9.29;62.24;99397.02;27258;1215;3027154;-64
2021/10/17 03:56:14;;;;;;;27.00;13.60;;;;;;;9.32;61.94;99399.13;27254;1213;3026624;-68
2021/10/17 03:58:43;;;;;;;28.40;14.30;;;;;;;9.33;61.80;99399.71;27254;1214;3054019;-66
2021/10/17 04:01:12;;;;;;;36.80;17.40;;;;;;;9.34;61.71;99401.63;27263;1214;3026176;-72
2021/10/17 04:03:41;;;;;;;38.80;17.70;;;;;;;9.26;62.00;99409.73;27265;1214;3054136;-73
2021/10/17 04:06:12;;;;;;;46.80;21.30;;;;;;;9.25;62.21;99409.27;27269;1215;3026292;-70
2021/10/17 04:08:41;;;;;;;41.20;18.50;;;;;;;9.26;62.09;99407.13;27302;1206;3026302;-70
2021/10/17 04:11:11;;;;;;;48.50;20.80;;;;;;;9.30;62.34;99411.45;27266;1215;3054768;-65
2021/10/17 04:13:40;;;;;;;47.40;20.80;;;;;;;9.25;62.40;99415.93;27281;1215;3026528;-63
2021/10/17 04:16:10;;;;;;;58.60;25.30;;;;;;;9.20;62.67;99416.34;27263;1214;3051204;-69
2021/10/17 04:18:59;;;;;;;73.90;30.40;;;;;;;9.17;63.26;99418.65;27249;1215;3052411;-64
2021/10/17 04:21:28;;;;;;;65.10;26.90;;;;;;;9.10;63.46;99418.30;27247;1214;3027815;-65
2021/10/17 04:23:57;;;;;;;54.30;25.80;;;;;;;8.99;63.86;99422.23;27279;1215;3051072;-67
2021/10/17 04:26:26;;;;;;;53.80;22.90;;;;;;;8.93;63.76;99422.42;27240;1215;3026313;-65
2021/10/17 04:28:56;;;;;;;58.00;22.40;;;;;;;8.86;64.18;99426.94;27254;1215;3047870;-69
2021/10/17 04:31:25;;;;;;;52.40;21.90;;;;;;;8.81;64.65;99425.14;27280;1214;3026337;-65
2021/10/17 04:33:54;;;;;;;52.50;21.70;;;;;;;8.73;65.27;99428.86;27237;1214;3070735;-64
2021/10/17 04:36:23;;;;;;;45.00;19.90;;;;;;;8.71;65.23;99430.04;27261;1215;3028357;-65
2021/10/17 04:38:53;;;;;;;37.60;18.10;;;;;;;8.70;65.53;99432.02;27271;1215;3049977;-71
2021/10/17 04:41:22;;;;;;;46.30;18.50;;;;;;;8.71;65.43;99439.64;27264;1215;3026516;-64
2021/10/17 04:43:51;;;;;;;33.20;15.80;;;;;;;8.68;65.38;99436.65;27282;1206;3026851;-62
2021/10/17 04:46:20;;;;;;;30.90;16.50;;;;;;;8.66;65.34;99435.55;27303;1215;3050308;-66
2021/10/17 04:48:49;;;;;;;35.80;16.80;;;;;;;8.67;65.58;99437.58;27279;1215;3026801;-67
2021/10/17 04:51:18;;;;;;;40.40;16.30;;;;;;;8.66;65.69;99439.73;27269;1215;3053450;-71
2021/10/17 04:53:47;;;;;;;31.30;16.60;;;;;;;8.61;65.69;99444.86;27295;1214;3026659;-68
2021/10/17 04:56:18;;;;;;;31.90;15.60;;;;;;;8.57;65.90;99445.45;27252;1214;3049480;-69
2021/10/17 04:58:48;;;;;;;32.00;15.20;;;;;;;8.58;65.82;99451.52;27256;1213;3026148;-67
2021/10/17 05:01:17;;;;;;;29.60;13.80;;;;;;;8.55;66.06;99445.90;27327;1215;3026082;-69
2021/10/17 05:03:46;;;;;;;25.00;12.00;;;;;;;8.61;66.02;99445.58;27310;1214;3049107;-67
2021/10/17 05:06:16;;;;;;;28.70;13.00;;;;;;;9.18;64.59;99451.06;27262;1215;3026307;-69
2021/10/17 05:08:46;;;;;;;22.60;11.80;;;;;;;9.55;63.19;99447.30;27281;1215;3026619;-67
2021/10/17 05:11:15;;;;;;;28.20;12.90;;;;;;;9.64;62.57;99450.82;27276;1214;3025967;-67
2021/10/17 05:13:43;;;;;;;27.20;14.60;;;;;;;9.54;62.90;99448.58;27297;1215;3052378;-66
2021/10/17 05:16:14;;;;;;;29.00;15.00;;;;;;;9.40;63.20;99452.12;27311;1215;3026098;-68
2021/10/17 05:18:42;;;;;;;26.40;14.00;;;;;;;9.27;63.74;99452.52;27268;1206;3025931;-66
2021/10/17 05:21:13;;;;;;;30.30;14.80;;;;;;;9.24;63.91;99450.42;27316;1215;3054474;-69
2021/10/17 05:23:43;;;;;;;27.40;14.20;;;;;;;9.10;64.05;99456.59;27285;1214;3027408;-65
2021/10/17 05:26:12;;;;;;;34.10;14.30;;;;;;;9.08;64.19;99457.20;27307;1215;3026560;-68
2021/10/17 05:28:41;;;;;;;32.10;14.90;;;;;;;9.01;64.51;99457.63;27291;1214;3026312;-69
2021/10/17 05:31:10;;;;;;;32.20;15.30;;;;;;;8.94;64.66;99464.08;27266;1215;3050011;-66
2021/10/17 05:33:40;;;;;;;34.70;15.00;;;;;;;8.87;64.87;99464.11;27265;1213;3025931;-67
2021/10/17 05:36:10;;;;;;;26.40;14.10;;;;;;;8.83;65.04;99461.04;27325;1214;3026220;-64
2021/10/17 05:38:41;;;;;;;35.90;14.80;;;;;;;8.84;64.78;99460.44;27267;1214;3026260;-69
2021/10/17 05:41:10;;;;;;;29.10;15.40;;;;;;;8.91;64.41;99465.64;27298;1216;3026180;-65
2021/10/17 05:43:40;;;;;;;33.30;15.40;;;;;;;8.89;64.66;99462.60;27301;1215;3026462;-68
2021/10/17 05:46:08;;;;;;;26.00;14.60;;;;;;;8.97;64.53;99464.63;27302;1215;3051119;-65
2021/10/17 05:48:38;;;;;;;30.60;15.30;;;;;;;8.96;64.54;99465.39;27277;1215;3026390;-69
2021/10/17 05:51:07;;;;;;;29.00;15.00;;;;;;;8.98;64.58;99464.24;27290;1215;3026194;-71
2021/10/17 05:53:37;;;;;;;27.50;15.00;;;;;;;8.94;64.27;99466.55;27277;1214;3053569;-70
2021/10/17 05:56:07;;;;;;;26.50;14.30;;;;;;;8.94;64.60;99475.63;27262;1215;3028990;-69
2021/10/17 05:58:37;;;;;;;28.70;15.50;;;;;;;8.94;65.03;99473.70;27271;1214;3026801;-70
2021/10/17 06:01:06;;;;;;;30.70;14.70;;;;;;;8.89;65.43;99473.98;27270;1206;3026569;-74
2021/10/17 06:03:41;;;;;;;33.00;15.90;;;;;;;8.95;64.77;99470.84;27275;1215;3055166;-71
2021/10/17 06:06:26;;;;;;;27.60;14.80;;;;;;;8.86;65.48;99473.94;27284;1214;3051204;-69
2021/10/17 06:08:59;;;;;;;33.20;14.10;;;;;;;8.93;65.34;99471.88;27243;1215;3028617;-67
2021/10/17 06:11:28;;;;;;;27.20;13.50;;;;;;;8.99;64.79;99475.39;27269;1215;3026720;-71
2021/10/17 06:13:57;;;;;;;27.30;12.70;;;;;;;9.11;64.55;99470.15;27292;1215;3026190;-67
2021/10/17 06:16:26;;;;;;;25.50;12.90;;;;;;;9.20;63.78;99470.20;27251;1215;3069667;-72
2021/10/17 06:18:55;;;;;;;28.10;13.60;;;;;;;9.30;63.54;99473.00;27374;1216;3026669;-67
2021/10/17 06:21:24;;;;;;;24.10;12.50;;;;;;;9.40;62.91;99471.05;27349;1215;3050490;-64
2021/10/17 06:23:54;;;;;;;22.10;13.10;;;;;;;9.52;62.40;99469.66;27297;1215;3026116;-68
2021/10/17 06:26:23;;;;;;;32.30;13.60;;;;;;;9.50;62.11;99471.00;27329;1214;3026108;-70
2021/10/17 06:28:52;;;;;;;23.20;12.80;;;;;;;9.65;61.36;99477.16;27344;1215;3052572;-65
2021/10/17 06:31:21;;;;;;;25.00;12.30;;;;;;;9.74;61.03;99477.17;27286;1215;3027862;-66
2021/10/17 06:33:50;;;;;;;29.60;14.30;;;;;;;9.81;60.87;99481.33;27282;1216;3052344;-67
2021/10/17 06:36:19;;;;;;;18.70;11.60;;;;;;;9.91;60.49;99474.26;27243;1216;3026338;-70
2021/10/17 06:38:48;;;;;;;24.30;12.70;;;;;;;9.99;60.39;99483.80;27283;1216;3048850;-71
2021/10/17 06:41:17;;;;;;;22.70;12.80;;;;;;;10.08;60.08;99483.25;27302;1214;3026229;-65
2021/10/17 06:43:47;;;;;;;18.90;12.60;;;;;;;10.08;60.06;99485.89;27283;1214;3056484;-73
2021/10/17 06:46:22;;;;;;;20.60;12.20;;;;;;;10.02;60.38;99484.51;27287;1214;3051293;-71
2021/10/17 06:48:54;;;;;;;21.80;12.80;;;;;;;10.03;60.62;99484.60;27281;1214;3026017;-68
2021/10/17 06:51:25;;;;;;;22.80;13.00;;;;;;;10.04;60.68;99481.73;27271;1216;3026626;-73
2021/10/17 06:53:54;;;;;;;26.10;13.30;;;;;;;10.10;60.59;99478.58;27289;1215;3028184;-70
2021/10/17 06:56:23;;;;;;;20.30;11.90;;;;;;;10.15;60.50;99477.27;27277;1215;3026989;-72
2021/10/17 06:58:54;;;;;;;20.10;12.00;;;;;;;10.30;60.25;99479.35;27293;1214;3026288;-65
2021/10/17 07:01:23;;;;;;;25.20;12.60;;;;;;;10.44;59.97;99477.87;27262;1206;3026027;-67
2021/10/17 07:03:55;;;;;;;26.90;13.00;;;;;;;10.51;59.97;99477.08;27293;1214;3026745;-67
2021/10/17 07:06:29;;;;;;;;;;;;;;;10.58;60.04;99480.52;27295;1215;3051701;-71
2021/10/17 07:09:07;;;;;;;19.20;12.10;;;;;;;10.56;60.05;99477.30;27269;1214;3051812;-69
2021/10/17 07:11:45;;;;;;;25.80;12.90;;;;;;;10.56;60.62;99478.70;27274;1214;3050069;-69
2021/10/17 07:14:26;;;;;;;22.30;12.80;;;;;;;10.69;60.30;99478.48;27310;1214;3071143;-68
2021/10/17 07:17:19;;;;;;;24.80;12.60;;;;;;;10.79;60.34;99480.84;27261;1216;3048853;-69
2021/10/17 07:19:48;;;;;;;24.80;13.60;;;;;;;10.84;60.33;99477.22;27306;1216;3026589;-67
2021/10/17 07:22:17;;;;;;;29.20;12.00;;;;;;;10.87;60.47;99481.94;27251;1215;3027726;-69
2021/10/17 07:24:49;;;;;;;31.20;13.50;;;;;;;10.91;60.28;99481.17;27277;1215;3048667;-68
2021/10/17 07:27:18;;;;;;;27.10;14.50;;;;;;;10.97;60.05;99481.30;27291;1213;3026494;-70
2021/10/17 07:29:47;;;;;;;29.90;13.90;;;;;;;10.93;60.25;99485.40;27254;1214;3026325;-71
2021/10/17 07:32:17;;;;;;;24.50;13.90;;;;;;;10.97;60.55;99482.20;27251;1214;3048394;-65
2021/10/17 07:34:46;;;;;;;31.90;14.50;;;;;;;11.02;60.40;99480.48;27258;1200;3028466;-66
2021/10/17 07:37:17;;;;;;;29.70;12.90;;;;;;;11.08;60.06;99485.21;27251;1213;3068632;-72
2021/10/17 07:39:46;;;;;;;36.30;14.20;;;;;;;11.10;59.89;99482.80;27307;1214;3025934;-73
2021/10/17 07:42:16;;;;;;;30.30;13.10;;;;;;;11.03;59.77;99484.27;27288;1214;3050291;-68
2021/10/17 07:44:47;;;;;;;27.60;13.20;;;;;;;11.22;58.69;99481.15;27301;1215;3026206;-69
2021/10/17 07:47:20;;;;;;;23.70;11.70;;;;;;;11.41;57.83;99479.45;27409;1215;3026637;-68
2021/10/17 07:50:10;;;;;;;34.60;13.00;;;;;;;11.57;57.81;99483.15;27290;1215;3054708;-64
2021/10/17 07:52:45;;;;;;;25.80;12.30;;;;;;;11.59;57.58;99487.60;27266;1216;3054572;-68
2021/10/17 07:55:21;;;;;;;25.50;11.30;;;;;;;11.55;57.31;99485.21;27273;1216;3055875;-69
2021/10/17 07:57:58;;;;;;;29.20;11.80;;;;;;;11.67;56.58;99483.94;27298;1213;3049764;-69
2021/10/17 08:00:30;;;;;;;21.30;12.20;;;;;;;11.90;55.88;99479.98;27255;1216;3055146;-66
2021/10/17 08:03:38;;;;;;;20.80;10.40;;;;;;;12.02;54.92;99481.89;27218;1220;3053404;-67
2021/10/17 08:06:27;;;;;;;19.60;10.40;;;;;;;12.00;54.24;99479.35;27209;1218;3070278;-68
2021/10/17 08:08:56;;;;;;;20.90;10.60;;;;;;;12.06;54.37;99474.56;27206;1218;3026185;-68
2021/10/17 08:11:26;;;;;;;20.90;11.00;;;;;;;12.27;54.04;99473.19;27183;1218;3027593;-67
2021/10/17 08:13:55;;;;;;;23.50;11.00;;;;;;;12.29;53.53;99479.89;27231;1218;3026503;-69
2021/10/17 08:16:29;;;;;;;22.80;11.20;;;;;;;12.33;53.34;99476.81;27196;1219;3057349;-70
2021/10/17 08:19:02;;;;;;;18.60;10.40;;;;;;;12.52;53.42;99473.41;27193;1218;3026592;-72
2021/10/17 08:21:32;;;;;;;18.30;11.10;;;;;;;12.76;52.57;99473.55;27256;1219;3027836;-68
2021/10/17 08:24:10;;;;;;;19.90;10.40;;;;;;;13.04;51.80;99471.95;27223;1218;3051705;-69
2021/10/17 08:26:43;;;;;;;17.60;10.20;;;;;;;13.22;51.12;99470.11;27220;1218;3026728;-67
2021/10/17 08:29:15;;;;;;;18.20;9.40;;;;;;;13.39;50.47;99470.16;27217;1218;3027193;-67
2021/10/17 08:31:45;;;;;;;17.50;9.70;;;;;;;13.54;49.80;99467.15;27213;1219;3027345;-68
2021/10/17 08:34:15;;;;;;;25.50;10.30;;;;;;;13.67;49.96;99466.94;27280;1216;3026361;-64
2021/10/17 08:36:46;;;;;;;17.60;9.90;;;;;;;13.70;49.38;99465.24;27272;1214;3026022;-70
2021/10/17 08:39:17;;;;;;;22.00;11.20;;;;;;;13.68;49.21;99463.83;27238;1214;3026980;-68
2021/10/17 08:41:47;;;;;;;20.40;10.20;;;;;;;13.78;49.21;99462.94;27261;1215;3027821;-68
2021/10/17 08:44:19;;;;;;;22.30;9.90;;;;;;;13.91;48.84;99462.50;27249;1214;3026089;-69
2021/10/17 08:46:58;;;;;;;15.40;8.60;;;;;;;14.01;48.73;99466.67;27263;1214;3068673;-68
2021/10/17 08:49:28;;;;;;;16.30;8.30;;;;;;;14.11;48.48;99463.83;27265;1215;3026068;-67
2021/10/17 08:51:57;;;;;;;22.10;9.20;;;;;;;14.08;47.86;99461.73;27243;1206;3025988;-67
2021/10/17 08:54:55;;;;;;;18.80;8.70;;;;;;;14.23;47.93;99462.75;34359;1217;3025947;-69
2021/10/17 08:57:24;;;;;;;20.40;11.70;;;;;;;14.48;47.67;99463.14;27177;1218;3027180;-66
2021/10/17 08:59:53;;;;;;;18.40;8.80;;;;;;;14.84;46.41;99462.52;27236;1219;3027217;-69
2021/10/17 09:02:23;;;;;;;22.70;9.50;;;;;;;14.78;46.12;99461.75;27171;1219;3048565;-68
2021/10/17 09:05:04;;;;;;;16.10;6.70;;;;;;;14.63;45.98;99454.98;27228;1219;3025855;-69
2021/10/17 09:07:53;;;;;;;17.30;8.20;;;;;;;14.52;45.60;99450.16;27202;1218;3055767;-70
2021/10/17 09:10:36;;;;;;;13.20;7.30;;;;;;;14.49;45.64;99454.46;27247;1219;3058412;-69
2021/10/17 09:13:13;;;;;;;11.00;7.10;;;;;;;14.46;45.80;99453.43;27229;1219;3026338;-68
2021/10/17 09:15:43;;;;;;;11.30;6.90;;;;;;;14.44;45.75;99451.83;27251;1217;3052108;-66
2021/10/17 09:18:21;;;;;;;17.90;6.60;;;;;;;14.50;45.62;99446.77;27230;1218;3026016;-69
2021/10/17 09:21:00;;;;;;;10.70;6.50;;;;;;;14.47;45.40;99444.70;27215;1218;3070733;-63
2021/10/17 09:23:29;;;;;;;;;;;;;;;14.50;45.57;99442.20;27336;1216;3048025;-70
2021/10/17 09:25:59;;;;;;;15.30;7.00;;;;;;;14.59;45.72;99439.23;27199;1216;3025997;-70
2021/10/17 09:28:30;;;;;;;14.30;7.40;;;;;;;14.62;45.29;99438.31;27239;1216;3025961;-66
2021/10/17 09:31:00;;;;;;;12.10;6.20;;;;;;;14.51;44.90;99436.33;27230;1209;3027951;-64
2021/10/17 09:33:30;;;;;;;13.70;5.90;;;;;;;14.46;44.72;99440.05;27205;1216;3051191;-66
2021/10/17 09:35:59;;;;;;;13.10;6.10;;;;;;;14.37;45.12;99440.17;27212;1216;3027122;-68
2021/10/17 09:39:04;;;;;;;13.20;6.70;;;;;;;14.31;45.28;99435.22;27232;1216;3056339;-67
2021/10/17 09:41:36;;;;;;;15.90;6.80;;;;;;;14.41;45.76;99435.97;27259;1216;3049737;-66
2021/10/17 09:44:07;;;;;;;12.10;6.70;;;;;;;14.42;45.14;99436.65;27256;1216;3026205;-66
2021/10/17 09:46:56;;;;;;;13.10;6.90;;;;;;;14.49;45.11;99433.95;27258;1216;3051478;-69
2021/10/17 09:49:25;;;;;;;20.30;7.20;;;;;;;14.58;45.34;99431.91;27251;1216;3072446;-68
2021/10/17 09:52:20;;;;;;;14.70;7.00;;;;;;;14.67;45.23;99433.03;27244;1216;3026394;-65
2021/10/17 09:54:51;;;;;;;15.20;7.10;;;;;;;14.59;44.95;99434.42;27314;1216;3050488;-69
2021/10/17 09:57:19;;;;;;;14.40;7.20;;;;;;;14.73;45.19;99429.34;27221;1216;3027811;-66
2021/10/17 09:59:48;;;;;;;13.00;7.00;;;;;;;14.58;45.17;99428.18;27307;1216;3026274;-67
2021/10/17 10:02:18;;;;;;;13.50;7.40;;;;;;;14.40;45.20;99429.88;27215;1216;3051558;-66
2021/10/17 10:04:47;;;;;;;14.60;6.90;;;;;;;14.27;45.51;99429.84;27229;1216;3027482;-66
2021/10/17 10:07:25;;;;;;;14.70;6.80;;;;;;;14.37;45.72;99427.71;27260;1217;3054575;-68
2021/10/17 10:09:54;;;;;;;15.70;6.80;;;;;;;14.53;45.25;99425.43;27227;1216;3054395;-70
2021/10/17 10:12:25;;;;;;;14.90;6.70;;;;;;;14.57;44.61;99428.25;27194;1216;3025986;-70
2021/10/17 10:14:55;;;;;;;13.70;6.60;;;;;;;14.62;44.34;99426.98;27247;1216;3025895;-69
2021/10/17 10:17:24;;;;;;;15.10;7.50;;;;;;;14.51;45.17;99429.23;27217;1216;3027697;-68
2021/10/17 10:19:55;;;;;;;15.80;8.40;;;;;;;14.29;45.82;99431.48;27245;1219;3026056;-68
2021/10/17 10:22:24;;;;;;;18.50;9.10;;;;;;;14.14;46.22;99429.78;27237;1216;3028105;-67
2021/10/17 10:24:53;;;;;;;14.80;7.90;;;;;;;14.00;46.57;99428.77;27236;1216;3026413;-69
2021/10/17 10:27:22;;;;;;;15.90;7.80;;;;;;;13.99;46.45;99428.60;27248;1216;3052493;-72
2021/10/17 10:29:51;;;;;;;17.20;10.30;;;;;;;13.97;46.71;99425.44;27265;1216;3026511;-69
2021/10/17 10:32:24;;;;;;;21.10;8.90;;;;;;;14.04;47.10;99424.36;27231;1216;3051045;-64
2021/10/17 10:34:54;;;;;;;20.70;8.60;;;;;;;14.09;47.31;99427.68;27249;1216;3027198;-71
2021/10/17 10:37:27;;;;;;;13.20;8.10;;;;;;;13.90;47.00;99427.70;27255;1216;3026621;-69
2021/10/17 10:40:09;;;;;;;18.10;8.40;;;;;;;13.72;47.57;99432.20;27191;1216;3026673;-68
2021/10/17 10:42:40;;;;;;;14.50;8.40;;;;;;;13.83;47.80;99427.30;27198;1216;3055320;-66
2021/10/17 10:45:32;;;;;;;18.00;9.00;;;;;;;13.69;48.43;99424.16;27249;1216;3026186;-66
2021/10/17 10:48:12;;;;;;;15.60;8.10;;;;;;;13.73;48.35;99418.07;27240;1216;3070807;-64
2021/10/17 10:50:48;;;;;;;22.70;8.80;;;;;;;13.88;48.06;99416.10;27221;1216;3051597;-68
2021/10/17 10:53:37;;;;;;;;;;;;;;;13.88;47.98;99419.36;27256;1216;3051576;-67
2021/10/17 10:56:06;;;;;;;14.20;7.20;;;;;;;13.76;47.87;99414.67;27229;1215;3054720;-65
2021/10/17 10:58:36;;;;;;;18.20;8.30;;;;;;;13.84;47.50;99411.08;27211;1215;3025910;-70
2021/10/17 11:01:05;;;;;;;18.60;7.80;;;;;;;14.09;47.36;99413.99;27211;1210;3025742;-68
2021/10/17 11:03:44;;;;;;;16.20;8.50;;;;;;;14.33;47.31;99411.09;27227;1216;3026039;-65
2021/10/17 11:06:17;;;;;;;22.70;9.00;;;;;;;14.53;46.57;99412.19;27231;1216;3052963;-67
2021/10/17 11:09:23;;;;;;;18.50;8.60;;;;;;;14.52;46.38;99409.56;27232;1216;3069045;-64
2021/10/17 11:11:53;;;;;;;15.60;8.60;;;;;;;14.41;46.52;99405.92;27192;1216;3051068;-68
2021/10/17 11:14:23;;;;;;;25.50;8.80;;;;;;;14.50;46.66;99401.69;27236;1216;3026327;-70
2021/10/17 11:16:52;;;;;;;19.90;8.70;;;;;;;14.46;46.07;99402.12;27231;1209;3027077;-67
2021/10/17 11:19:21;;;;;;;13.30;7.60;;;;;;;14.42;45.77;99398.42;27235;1216;3026280;-70
2021/10/17 11:21:50;;;;;;;14.70;7.80;;;;;;;14.28;46.05;99396.48;27229;1216;3051404;-67
2021/10/17 11:24:20;;;;;;;16.40;8.20;;;;;;;14.42;46.15;99402.64;27243;1216;3026044;-68
2021/10/17 11:27:07;;;;;;;18.80;8.90;;;;;;;14.60;45.57;99400.00;27202;1216;3026007;-66